Time;durP1;ratioP1;P1;durP2;ratioP2;P2;SDS_P1;SDS_P2;PMS_P1;PMS_P2;Temp;Humidity;BMP_temperature;BMP_pressure;BME280_temperature;BME280_humidity;BME280_pressure;Samples;Min_cycle;Max_cycle;Signal;HPM_P1;HPM_P2
2022/04/04 06:04:02;;;;;;;18.02;13.88;;;10.10;73.80;;;;;;4925709;29;20166;-71
2022/04/04 06:06:28;;;;;;;24.25;13.07;;;10.10;73.80;;;;;;4910666;29;20048;-76
2022/04/04 06:08:55;;;;;;;15.98;13.70;;;10.10;73.90;;;;;;4925978;29;20119;-71
2022/04/04 06:11:21;;;;;;;14.77;12.65;;;10.10;73.70;;;;;;4914228;29;20048;-79
2022/04/04 06:13:46;;;;;;;20.38;14.20;;;10.20;75.10;;;;;;4927073;29;20500;-78
2022/04/04 06:16:12;;;;;;;17.45;15.02;;;10.20;75.40;;;;;;4926004;29;20394;-80
2022/04/04 06:18:38;;;;;;;19.27;13.50;;;10.10;75.20;;;;;;4913897;29;20046;-79
2022/04/04 06:21:04;;;;;;;15.10;12.52;;;10.10;75.50;;;;;;4925099;29;20032;-79
2022/04/04 06:23:33;;;;;;;15.07;12.85;;;10.00;75.40;;;;;;4909855;29;20179;-79
2022/04/04 06:25:59;;;;;;;15.18;12.13;;;10.00;75.20;;;;;;4908159;29;20059;-79
2022/04/04 06:28:25;;;;;;;16.33;12.38;;;10.00;75.10;;;;;;4928312;29;20365;-78
2022/04/04 06:30:51;;;;;;;16.77;12.13;;;10.10;75.10;;;;;;4931067;29;20044;-78
2022/04/04 06:33:18;;;;;;;16.73;11.80;;;10.20;74.90;;;;;;4908928;29;20044;-79
2022/04/04 06:35:44;;;;;;;15.65;11.55;;;10.20;75.50;;;;;;4918105;29;20350;-80
2022/04/04 06:38:10;;;;;;;15.30;11.95;;;10.30;75.30;;;;;;4935203;29;20043;-78
2022/04/04 06:40:36;;;;;;;16.27;12.90;;;10.30;74.80;;;;;;4919944;29;20055;-78
2022/04/04 06:43:02;;;;;;;12.80;11.10;;;10.30;73.20;;;;;;4915414;29;20036;-79
2022/04/04 06:45:28;;;;;;;15.57;11.68;;;10.30;73.90;;;;;;4938277;29;20047;-72
2022/04/04 06:47:54;;;;;;;13.57;11.40;;;10.30;74.40;;;;;;4938416;29;20542;-73
2022/04/04 06:50:20;;;;;;;12.98;10.07;;;10.40;75.50;;;;;;4938745;29;20040;-72
2022/04/04 06:52:47;;;;;;;11.45;9.75;;;10.30;75.90;;;;;;4918285;29;20099;-72
2022/04/04 06:55:15;;;;;;;11.60;7.57;;;10.40;78.30;;;;;;4919657;29;20154;-72
2022/04/04 06:57:41;;;;;;;7.60;4.82;;;10.40;77.00;;;;;;4937507;29;20044;-72
2022/04/04 07:00:08;;;;;;;6.30;4.47;;;10.40;72.90;;;;;;4938844;29;20123;-73
2022/04/04 07:02:36;;;;;;;8.43;4.15;;;10.40;73.50;;;;;;4938683;29;20079;-72
2022/04/04 07:05:05;;;;;;;6.43;3.60;;;10.50;74.90;;;;;;4938508;29;20461;-73
2022/04/04 07:07:31;;;;;;;6.60;3.50;;;10.40;74.00;;;;;;4923815;29;20069;-73
2022/04/04 07:09:57;;;;;;;6.32;3.17;;;10.40;75.20;;;;;;4918997;29;20042;-72
2022/04/04 07:12:23;;;;;;;4.30;3.13;;;10.40;76.90;;;;;;4919097;29;20119;-73
2022/04/04 07:14:49;;;;;;;3.72;2.88;;;10.40;75.40;;;;;;4919639;29;20516;-73
2022/04/04 07:17:15;;;;;;;4.13;2.95;;;10.40;77.20;;;;;;4919557;29;20091;-73
2022/04/04 07:19:40;;;;;;;3.50;2.97;;;10.50;77.70;;;;;;4921060;29;20473;-72
2022/04/04 07:22:06;;;;;;;2.67;2.47;;;10.50;78.10;;;;;;4919068;29;20032;-73
2022/04/04 07:24:32;;;;;;;3.17;2.22;;;10.60;74.60;;;;;;4919709;29;20068;-72
2022/04/04 07:26:58;;;;;;;7.90;3.15;;;10.70;75.30;;;;;;4919335;29;20126;-73
2022/04/04 07:29:24;;;;;;;4.50;2.50;;;10.80;75.70;;;;;;4902438;29;20121;-72
2022/04/04 07:31:49;;;;;;;5.22;2.72;;;10.90;75.10;;;;;;4919239;29;20064;-72
2022/04/04 07:34:15;;;;;;;3.33;2.53;;;10.90;75.00;;;;;;4918677;29;20048;-74
2022/04/04 07:36:41;;;;;;;7.40;2.70;;;11.00;74.20;;;;;;4918818;29;20473;-71
2022/04/04 07:39:08;;;;;;;4.32;2.70;;;11.10;73.90;;;;;;4918790;29;20412;-72
2022/04/04 07:41:34;;;;;;;2.30;2.10;;;11.10;73.90;;;;;;4918446;29;20447;-72
2022/04/04 07:44:00;;;;;;;3.90;2.53;;;11.10;71.80;;;;;;4918764;29;20048;-72
2022/04/04 07:46:26;;;;;;;4.35;2.28;;;11.20;74.20;;;;;;4918925;29;20051;-72
2022/04/04 07:48:55;;;;;;;7.28;2.40;;;11.20;72.60;;;;;;4918731;29;20047;-73
2022/04/04 07:51:21;;;;;;;5.90;2.65;;;11.20;73.50;;;;;;4918632;29;20040;-71
2022/04/04 07:53:47;;;;;;;4.82;2.33;;;11.30;70.70;;;;;;4918834;29;20051;-71
2022/04/04 07:56:13;;;;;;;6.03;2.45;;;11.30;70.10;;;;;;4886153;29;20135;-72
2022/04/04 07:58:39;;;;;;;4.72;2.42;;;11.30;71.00;;;;;;4918355;29;20446;-72
2022/04/04 08:01:04;;;;;;;3.60;2.22;;;11.30;70.70;;;;;;4918151;29;20516;-72
2022/04/04 08:03:30;;;;;;;6.45;2.38;;;11.20;69.10;;;;;;4917963;29;20096;-74
2022/04/04 08:05:56;;;;;;;2.25;2.03;;;11.20;69.10;;;;;;4918310;29;20040;-73
2022/04/04 08:08:22;;;;;;;7.57;2.75;;;11.20;69.20;;;;;;4931591;29;20110;-74
2022/04/04 08:10:48;;;;;;;5.13;2.72;;;11.30;69.20;;;;;;4931485;29;20044;-73
2022/04/04 08:13:14;;;;;;;4.93;2.33;;;11.40;69.20;;;;;;4929535;29;20039;-73
2022/04/04 08:15:39;;;;;;;4.68;2.60;;;11.40;69.20;;;;;;4936469;29;20583;-74
2022/04/04 08:18:06;;;;;;;3.95;3.10;;;11.50;69.40;;;;;;4932923;29;20047;-73
2022/04/04 08:20:32;;;;;;;3.38;2.45;;;11.60;69.90;;;;;;4933468;29;20539;-74
2022/04/04 08:22:58;;;;;;;14.82;2.50;;;11.60;69.10;;;;;;4930818;29;20072;-74
2022/04/04 08:25:24;;;;;;;4.95;2.63;;;11.60;68.40;;;;;;4916775;29;20145;-72
2022/04/04 08:27:49;;;;;;;3.08;2.33;;;11.80;68.70;;;;;;4934084;29;20046;-73
2022/04/04 08:30:17;;;;;;;5.18;2.42;;;11.80;67.80;;;;;;4933660;29;20103;-72
2022/04/04 08:32:44;;;;;;;5.57;2.67;;;11.80;65.40;;;;;;4934996;29;20036;-73
2022/04/04 08:35:12;;;;;;;3.70;2.50;;;11.90;67.00;;;;;;4934172;29;20040;-72
2022/04/04 08:37:41;;;;;;;5.47;2.70;;;12.00;66.00;;;;;;4918296;29;20524;-72
2022/04/04 08:40:10;;;;;;;6.18;2.80;;;12.10;66.00;;;;;;4935702;29;20122;-73
2022/04/04 08:42:37;;;;;;;4.00;2.20;;;12.20;66.60;;;;;;4936346;29;20032;-79
2022/04/04 08:45:05;;;;;;;7.43;3.40;;;12.20;65.10;;;;;;4937124;29;20067;-78
2022/04/04 08:47:32;;;;;;;3.83;2.30;;;12.20;65.90;;;;;;4936135;29;20425;-78
2022/04/04 08:49:58;;;;;;;2.92;2.10;;;12.30;64.90;;;;;;4936458;29;20039;-79
2022/04/04 08:52:26;;;;;;;4.95;2.47;;;12.30;64.90;;;;;;4936787;29;20036;-79
2022/04/04 08:54:53;;;;;;;5.65;2.30;;;12.30;65.20;;;;;;4936970;29;20040;-78
2022/04/04 08:57:19;;;;;;;5.30;2.42;;;12.30;64.10;;;;;;4936990;29;20036;-79
2022/04/04 08:59:44;;;;;;;5.43;2.05;;;12.30;63.90;;;;;;4936816;29;20047;-79
2022/04/04 09:02:12;;;;;;;2.70;2.15;;;12.30;66.00;;;;;;4936319;29;20096;-79
2022/04/04 09:04:38;;;;;;;5.90;2.78;;;12.30;65.20;;;;;;4919551;29;20440;-79
2022/04/04 09:07:09;;;;;;;6.93;2.50;;;12.30;64.40;;;;;;4934485;29;20045;-80
2022/04/04 09:09:43;;;;;;;6.25;2.67;;;12.30;63.50;;;;;;4909351;29;20493;-79
2022/04/04 09:12:10;;;;;;;4.60;2.80;;;12.30;64.60;;;;;;4930577;29;20099;-82
2022/04/04 09:14:47;;;;;;;5.03;3.22;;;12.20;63.90;;;;;;4935564;29;20377;-81
2022/04/04 09:17:15;;;;;;;5.10;2.63;;;12.20;64.90;;;;;;4914773;29;20044;-82
2022/04/04 09:19:41;;;;;;;4.03;2.50;;;12.20;64.90;;;;;;4935887;29;20036;-81
2022/04/04 09:22:15;;;;;;;6.45;2.67;;;12.20;64.70;;;;;;4936371;29;20067;-83
2022/04/04 09:24:51;;;;;;;6.53;3.25;;;12.30;65.20;;;;;;4936004;29;20032;-82
2022/04/04 09:27:22;;;;;;;5.57;3.10;;;12.30;65.40;;;;;;4936207;29;20044;-83
2022/04/04 09:29:51;;;;;;;5.93;3.40;;;12.20;65.00;;;;;;4935742;29;20520;-82
2022/04/04 09:32:17;;;;;;;5.80;2.90;;;12.20;66.70;;;;;;4935964;29;20040;-82
2022/04/04 09:35:02;;;;;;;6.72;3.05;;;12.10;64.90;;;;;;4935834;29;20106;-82
2022/04/04 09:37:33;;;;;;;6.63;2.72;;;12.10;65.50;;;;;;4914943;29;20135;-83
2022/04/04 09:40:22;;;;;;;4.55;2.47;;;12.00;67.00;;;;;;4935538;29;20043;-83
2022/04/04 09:42:53;;;;;;;3.53;2.17;;;12.00;68.70;;;;;;4935337;29;20040;-81
2022/04/04 09:45:38;;;;;;;7.03;3.00;;;11.80;70.30;;;;;;4934158;29;20268;-83
2022/04/04 09:48:06;;;;;;;4.25;2.58;;;11.70;71.30;;;;;;4924295;29;20126;-82
2022/04/04 09:50:37;;;;;;;5.70;2.60;;;11.70;72.30;;;;;;4930135;29;20039;-82
2022/04/04 09:53:08;;;;;;;7.07;3.20;;;11.70;74.40;;;;;;4931368;29;20039;-82
2022/04/04 09:55:38;;;;;;;4.07;2.70;;;11.60;74.60;;;;;;4935048;29;20539;-82
2022/04/04 09:58:07;;;;;;;4.10;2.55;;;11.60;75.90;;;;;;4923578;29;20051;-82
2022/04/04 10:00:37;;;;;;;4.57;2.97;;;11.60;75.10;;;;;;4923123;29;20040;-82
2022/04/04 10:03:05;;;;;;;;;;;11.60;74.40;;;;;;4926197;29;20043;-79
2022/04/04 10:05:31;;;;;;;5.28;2.38;;;11.60;75.30;;;;;;4940653;29;19911;-79
2022/04/04 10:07:58;;;;;;;3.67;2.53;;;11.50;73.50;;;;;;4940334;29;20058;-79
2022/04/04 10:10:42;;;;;;;5.32;3.00;;;11.60;75.60;;;;;;4932883;29;20047;-78
2022/04/04 10:13:13;;;;;;;4.72;2.70;;;11.70;77.60;;;;;;4922385;29;21368;-78
2022/04/04 10:15:41;;;;;;;3.55;2.90;;;11.80;77.10;;;;;;4935590;29;20403;-76
2022/04/04 10:18:07;;;;;;;6.25;2.45;;;11.80;72.20;;;;;;4916775;29;20388;-79
2022/04/04 10:20:34;;;;;;;5.15;2.50;;;11.80;71.70;;;;;;4920523;29;20035;-79
2022/04/04 10:23:01;;;;;;;5.60;2.78;;;11.90;68.90;;;;;;4937016;29;20477;-79
2022/04/04 10:25:30;;;;;;;4.20;2.80;;;12.00;72.30;;;;;;4936607;29;20070;-79
2022/04/04 10:27:56;;;;;;;3.97;2.30;;;12.10;71.00;;;;;;4939301;29;20067;-79
2022/04/04 10:30:34;;;;;;;6.70;2.50;;;12.20;68.80;;;;;;4937508;29;20085;-79
2022/04/04 10:33:00;;;;;;;6.97;2.63;;;12.30;68.10;;;;;;4932018;29;20036;-79
2022/04/04 10:35:29;;;;;;;4.60;2.20;;;12.50;68.10;;;;;;4933150;29;20075;-80
2022/04/04 10:37:59;;;;;;;5.63;2.35;;;12.70;66.30;;;;;;4926310;29;20071;-79
2022/04/04 10:40:28;;;;;;;6.25;2.47;;;12.90;66.20;;;;;;4926653;29;20091;-78
2022/04/04 10:43:21;;;;;;;5.10;2.67;;;13.30;67.00;;;;;;4919265;29;20477;-74
2022/04/04 10:45:58;;;;;;;3.78;2.40;;;13.80;66.10;;;;;;4912518;29;20044;-73
2022/04/04 10:48:45;;;;;;;4.97;2.40;;;14.10;65.70;;;;;;4929017;29;20047;-74
2022/04/04 10:51:27;;;;;;;4.43;2.47;;;14.50;66.10;;;;;;4926527;29;20381;-72
2022/04/04 10:53:54;;;;;;;9.82;3.13;;;14.90;62.30;;;;;;4933447;29;20062;-73
2022/04/04 10:56:46;;;;;;;4.55;2.50;;;15.30;62.10;;;;;;4925675;29;20035;-73
2022/04/04 10:59:32;;;;;;;3.20;2.90;;;15.80;58.00;;;;;;4927787;29;20048;-79
2022/04/04 11:02:02;;;;;;;6.47;3.42;;;16.10;58.20;;;;;;4934003;29;20027;-79
2022/04/04 11:04:36;;;;;;;4.95;2.70;;;16.30;56.60;;;;;;4935392;29;20036;-77
2022/04/04 11:10:08;;;;;;;7.75;2.78;;;16.60;55.80;;;;;;4932055;29;20047;-73
2022/04/04 11:13:05;;;;;;;3.55;2.53;;;16.90;52.70;;;;;;4928291;29;20043;-73
2022/04/04 11:15:45;;;;;;;5.70;3.05;;;17.00;51.90;;;;;;4930207;29;20354;-73
2022/04/04 11:18:14;;;;;;;6.13;2.95;;;17.20;51.80;;;;;;4924106;29;20051;-72
2022/04/04 11:21:06;;;;;;;4.82;2.67;;;17.20;51.50;;;;;;4922438;29;20421;-73
2022/04/04 11:23:35;;;;;;;5.03;2.50;;;17.30;50.60;;;;;;4921352;29;20054;-73
2022/04/04 11:26:04;;;;;;;4.07;2.08;;;17.20;46.70;;;;;;4931161;29;20043;-74
2022/04/04 11:28:32;;;;;;;5.90;2.50;;;17.00;46.90;;;;;;4932111;29;20044;-73
2022/04/04 11:31:09;;;;;;;6.30;2.75;;;16.70;48.50;;;;;;4919948;29;20036;-71
2022/04/04 11:33:47;;;;;;;4.50;2.33;;;16.50;47.30;;;;;;4930611;29;20050;-72
2022/04/04 11:36:27;;;;;;;3.33;2.42;;;16.50;50.60;;;;;;4931563;29;20443;-73
2022/04/04 11:38:57;;;;;;;5.78;2.70;;;16.60;49.30;;;;;;4923098;29;20039;-73
2022/04/04 11:41:24;;;;;;;3.75;2.55;;;16.50;50.90;;;;;;4928616;29;20028;-73
2022/04/04 11:43:52;;;;;;;11.02;3.03;;;16.40;49.20;;;;;;4911075;29;20059;-72
2022/04/04 11:46:19;;;;;;;5.93;2.50;;;16.20;48.40;;;;;;4925993;29;20044;-73
2022/04/04 11:48:54;;;;;;;4.50;2.90;;;16.10;50.20;;;;;;4925057;29;20040;-73
2022/04/04 11:51:24;;;;;;;4.90;2.28;;;15.90;48.90;;;;;;4930932;29;20052;-73
2022/04/04 11:53:59;;;;;;;3.85;2.28;;;15.50;51.20;;;;;;4927566;29;20051;-73
2022/04/04 11:56:27;;;;;;;4.03;2.60;;;15.30;50.90;;;;;;4926402;29;20049;-73
2022/04/04 11:58:55;;;;;;;4.97;2.28;;;15.10;50.70;;;;;;4932092;29;20054;-73
2022/04/04 12:01:27;;;;;;;3.78;2.38;;;15.10;53.50;;;;;;4926586;29;20523;-73
2022/04/04 12:03:53;;;;;;;4.97;2.30;;;15.00;52.80;;;;;;4924173;29;20040;-73
2022/04/04 12:06:20;;;;;;;5.40;2.80;;;15.00;54.90;;;;;;4909685;29;20419;-73
2022/04/04 12:08:46;;;;;;;5.28;3.05;;;15.00;53.90;;;;;;4926818;29;20043;-73
2022/04/04 12:11:12;;;;;;;4.00;3.10;;;15.00;54.00;;;;;;4925358;29;20043;-72
2022/04/04 12:13:56;;;;;;;9.60;2.90;;;14.90;53.80;;;;;;4925704;29;20039;-73
2022/04/04 12:16:24;;;;;;;5.80;3.13;;;14.80;54.30;;;;;;4921703;29;20127;-73
2022/04/04 12:18:54;;;;;;;4.97;2.70;;;14.80;56.40;;;;;;4909603;29;20051;-74
2022/04/04 12:21:20;;;;;;;4.90;2.90;;;14.70;54.90;;;;;;4932621;29;20028;-73
2022/04/04 12:26:31;;;;;;;4.03;3.10;;;14.50;54.60;;;;;;4933125;29;20059;-72
2022/04/04 12:28:57;;;;;;;4.75;3.13;;;14.50;56.20;;;;;;4916866;29;20043;-73
2022/04/04 12:31:23;;;;;;;4.88;2.85;;;14.50;56.60;;;;;;4931615;29;20050;-74
2022/04/04 12:34:10;;;;;;;3.33;2.75;;;14.50;55.30;;;;;;4928279;29;20055;-74
2022/04/04 12:36:38;;;;;;;5.22;2.75;;;14.50;55.20;;;;;;4922908;29;20076;-75
2022/04/04 12:39:09;;;;;;;8.90;4.15;;;14.50;55.30;;;;;;4935297;29;20042;-73
2022/04/04 12:42:07;;;;;;;4.18;2.75;;;14.60;55.90;;;;;;4934833;29;20488;-72
2022/04/04 12:44:34;;;;;;;4.72;2.90;;;14.80;53.10;;;;;;4904386;29;20031;-72
2022/04/04 12:47:11;;;;;;;6.45;3.47;;;15.10;55.60;;;;;;4931141;29;20072;-73
2022/04/04 12:49:38;;;;;;;6.80;3.25;;;15.40;55.70;;;;;;4932782;29;20031;-74
2022/04/04 12:52:09;;;;;;;5.30;3.10;;;15.50;55.50;;;;;;4932415;29;20195;-74
2022/04/04 12:54:40;;;;;;;5.78;3.05;;;15.60;55.20;;;;;;4932285;29;20031;-73
2022/04/04 12:57:06;;;;;;;;;;;15.50;56.90;;;;;;4933417;29;20043;-73
2022/04/04 12:59:50;;;;;;;7.10;2.83;;;15.60;57.20;;;;;;4928473;29;19910;-74
2022/04/04 13:02:16;;;;;;;4.22;2.50;;;15.40;55.00;;;;;;4927983;29;20051;-73
2022/04/04 13:04:42;;;;;;;5.18;2.90;;;15.30;55.50;;;;;;4919537;29;20028;-72
2022/04/04 13:07:19;;;;;;;7.15;2.92;;;15.30;55.70;;;;;;4909893;29;20072;-73
2022/04/04 13:09:53;;;;;;;7.63;3.30;;;15.20;51.10;;;;;;4932690;29;20040;-72
2022/04/04 13:12:25;;;;;;;5.70;3.10;;;15.00;54.00;;;;;;4929795;29;20106;-73
2022/04/04 13:14:50;;;;;;;5.30;2.53;;;14.80;55.30;;;;;;4926444;29;20492;-73
2022/04/04 13:17:16;;;;;;;6.32;3.03;;;14.70;54.90;;;;;;4929240;29;20179;-72
2022/04/04 13:19:42;;;;;;;5.03;2.65;;;14.70;54.80;;;;;;4935198;29;20047;-72
2022/04/04 13:22:07;;;;;;;4.68;3.05;;;14.70;57.00;;;;;;4935574;29;20036;-73
2022/04/04 13:24:34;;;;;;;5.47;3.08;;;14.70;56.80;;;;;;4935542;29;20043;-72
2022/04/04 13:26:59;;;;;;;4.57;2.95;;;14.60;57.10;;;;;;4931116;29;20071;-77
2022/04/04 13:29:25;;;;;;;8.15;3.20;;;14.60;57.70;;;;;;4935489;29;20412;-79
2022/04/04 13:31:51;;;;;;;8.85;3.42;;;14.50;57.30;;;;;;4930077;29;20114;-77
2022/04/04 13:34:16;;;;;;;5.65;3.00;;;14.40;60.30;;;;;;4932673;29;20043;-78
2022/04/04 13:36:44;;;;;;;5.55;2.60;;;14.40;59.70;;;;;;4914040;29;20199;-77
2022/04/04 13:39:11;;;;;;;3.95;2.55;;;14.40;58.90;;;;;;4934408;29;20384;-72
2022/04/04 13:41:38;;;;;;;5.68;3.05;;;14.50;59.80;;;;;;4921676;29;20404;-72
2022/04/04 13:44:05;;;;;;;4.57;2.63;;;14.50;58.90;;;;;;4930112;29;20032;-72
2022/04/04 13:46:31;;;;;;;8.38;2.90;;;14.60;57.80;;;;;;4923781;29;20043;-72
2022/04/04 13:48:58;;;;;;;5.40;3.22;;;14.50;57.80;;;;;;4931750;29;20028;-70
2022/04/04 13:51:27;;;;;;;5.90;3.05;;;14.70;58.60;;;;;;4932916;29;20046;-72
2022/04/04 13:53:57;;;;;;;4.10;2.38;;;14.70;57.20;;;;;;4923704;29;20385;-72
2022/04/04 13:56:28;;;;;;;4.03;2.65;;;14.70;57.70;;;;;;4923096;29;20059;-72
2022/04/04 13:59:07;;;;;;;5.10;2.58;;;14.70;56.90;;;;;;4908205;29;20050;-73
2022/04/04 14:01:33;;;;;;;3.80;2.53;;;14.60;57.30;;;;;;4907567;29;20055;-78
2022/04/04 14:03:59;;;;;;;4.40;2.72;;;14.60;58.50;;;;;;4921027;29;20291;-71
2022/04/04 14:06:25;;;;;;;9.43;3.30;;;14.50;57.40;;;;;;4926399;29;20044;-72
2022/04/04 14:08:51;;;;;;;7.10;3.10;;;14.50;58.80;;;;;;4926952;29;20511;-77
2022/04/04 14:11:17;;;;;;;4.60;2.58;;;14.40;60.80;;;;;;4935320;29;20036;-78
2022/04/04 14:13:45;;;;;;;4.80;2.50;;;14.40;59.10;;;;;;4931987;29;20504;-77
2022/04/04 14:16:12;;;;;;;3.63;2.13;;;14.40;58.70;;;;;;4917184;29;20046;-77
2022/04/04 14:18:39;;;;;;;8.70;2.78;;;14.40;59.10;;;;;;4919119;29;20496;-78
2022/04/04 14:21:05;;;;;;;4.28;2.78;;;14.50;58.70;;;;;;4932568;29;20095;-78
2022/04/04 14:23:32;;;;;;;4.85;2.90;;;14.40;59.90;;;;;;4932115;29;20085;-78
2022/04/04 14:25:58;;;;;;;5.30;2.60;;;14.30;59.30;;;;;;4935401;29;20469;-77
2022/04/04 14:28:24;;;;;;;5.00;2.33;;;14.30;60.00;;;;;;4934417;29;20043;-77
2022/04/04 14:30:55;;;;;;;8.52;2.72;;;14.30;60.70;;;;;;4935643;29;20032;-79
2022/04/04 14:33:26;;;;;;;10.90;2.80;;;14.40;61.90;;;;;;4928014;29;20051;-77
2022/04/04 14:36:00;;;;;;;6.40;2.97;;;14.40;61.70;;;;;;4915720;29;20067;-77
2022/04/04 14:38:27;;;;;;;5.68;2.72;;;14.50;61.10;;;;;;4919785;29;20091;-77
2022/04/04 14:40:53;;;;;;;4.95;2.30;;;14.40;62.00;;;;;;4935454;29;20091;-77
2022/04/04 14:43:20;;;;;;;5.00;2.70;;;14.40;62.90;;;;;;4930588;29;20048;-78
2022/04/04 14:45:46;;;;;;;4.20;2.72;;;14.30;62.60;;;;;;4919488;29;20039;-78
2022/04/04 14:48:12;;;;;;;7.68;2.70;;;14.40;63.90;;;;;;4920930;29;20044;-78
2022/04/04 14:50:42;;;;;;;7.25;2.60;;;14.40;64.10;;;;;;4937986;29;20058;-77
2022/04/04 14:53:08;;;;;;;4.45;2.58;;;14.30;63.40;;;;;;4929820;29;20044;-77
2022/04/04 14:55:35;;;;;;;5.38;2.42;;;14.20;63.10;;;;;;4938355;29;20504;-77
2022/04/04 14:58:01;;;;;;;3.30;1.92;;;14.10;63.30;;;;;;4938247;29;20059;-77
2022/04/04 15:00:27;;;;;;;5.97;2.53;;;13.90;63.60;;;;;;4937595;29;20048;-77
2022/04/04 15:02:53;;;;;;;4.63;2.13;;;13.80;64.60;;;;;;4934537;29;20608;-77
2022/04/04 15:05:20;;;;;;;5.07;2.10;;;13.80;63.90;;;;;;4927862;29;20039;-77
2022/04/04 15:07:46;;;;;;;6.65;2.50;;;13.90;65.00;;;;;;4911475;29;20047;-78
2022/04/04 15:10:11;;;;;;;5.25;2.30;;;14.00;64.50;;;;;;4911522;29;20039;-77
2022/04/04 15:12:38;;;;;;;3.75;2.30;;;14.00;64.70;;;;;;4911843;29;20508;-77
2022/04/04 15:15:05;;;;;;;4.05;2.08;;;14.00;61.80;;;;;;4917122;29;20123;-76
2022/04/04 15:17:31;;;;;;;3.17;2.15;;;14.00;62.60;;;;;;4917156;29;20046;-76
2022/04/04 15:19:57;;;;;;;2.95;1.98;;;14.10;62.80;;;;;;4934302;29;20044;-76
2022/04/04 15:22:23;;;;;;;4.68;2.17;;;14.10;62.70;;;;;;4923671;29;20040;-76
2022/04/04 15:24:49;;;;;;;6.15;1.95;;;14.10;62.30;;;;;;4925965;29;20047;-76
2022/04/04 15:27:15;;;;;;;4.63;2.40;;;14.10;63.90;;;;;;4916371;29;20052;-76
2022/04/04 15:29:41;;;;;;;3.28;2.00;;;14.20;62.40;;;;;;4926228;29;20040;-76
2022/04/04 15:32:08;;;;;;;4.57;1.83;;;14.20;62.90;;;;;;4923800;29;20511;-78
2022/04/04 15:34:34;;;;;;;4.85;2.30;;;14.20;62.30;;;;;;4929336;29;20075;-76
2022/04/04 15:37:03;;;;;;;5.72;2.05;;;14.10;61.50;;;;;;4931896;29;20102;-76
2022/04/04 15:39:33;;;;;;;2.88;1.77;;;14.10;61.90;;;;;;4931351;29;20070;-76
2022/04/04 15:42:00;;;;;;;2.83;2.13;;;14.10;63.50;;;;;;4925612;29;20047;-77
2022/04/04 15:44:27;;;;;;;3.63;2.13;;;14.10;63.70;;;;;;4938880;29;20771;-77
2022/04/04 15:46:53;;;;;;;4.15;1.85;;;14.10;64.40;;;;;;4934384;29;20047;-77
2022/04/04 15:49:20;;;;;;;4.93;1.77;;;14.10;63.40;;;;;;4934118;29;20055;-77
2022/04/04 15:51:47;;;;;;;4.55;1.70;;;14.10;63.70;;;;;;4910832;29;20160;-76
2022/04/04 15:54:12;;;;;;;2.65;1.90;;;14.00;63.40;;;;;;4926832;29;20522;-77
2022/04/04 15:56:41;;;;;;;2.60;1.38;;;14.00;64.10;;;;;;4931637;29;20135;-77
2022/04/04 15:59:08;;;;;;;4.22;1.38;;;14.00;63.00;;;;;;4933397;29;20108;-77
2022/04/04 16:01:34;;;;;;;4.53;1.77;;;13.90;62.50;;;;;;4925247;29;20074;-72
2022/04/04 16:04:01;;;;;;;5.50;1.70;;;13.90;63.60;;;;;;4904855;29;20098;-72
2022/04/04 16:06:28;;;;;;;4.32;1.55;;;13.90;64.10;;;;;;4905628;29;20047;-72
2022/04/04 16:08:55;;;;;;;4.38;1.77;;;13.90;64.40;;;;;;4923763;29;20063;-72
2022/04/04 16:11:22;;;;;;;7.03;1.70;;;13.80;64.20;;;;;;4922908;29;20051;-77
2022/04/04 16:13:48;;;;;;;5.70;2.10;;;13.80;65.20;;;;;;4926528;29;20551;-77
2022/04/04 16:16:14;;;;;;;3.88;1.92;;;13.80;66.20;;;;;;4916409;29;20113;-77
2022/04/04 16:18:40;;;;;;;4.53;1.73;;;13.80;65.80;;;;;;4933473;29;20492;-77
2022/04/04 16:21:10;;;;;;;2.95;1.60;;;13.70;64.50;;;;;;4924958;29;20067;-80
2022/04/04 16:23:37;;;;;;;5.75;1.88;;;13.80;65.30;;;;;;4932288;29;20040;-78
2022/04/04 16:26:04;;;;;;;3.13;1.70;;;13.60;65.00;;;;;;4935390;29;20073;-78
2022/04/04 16:28:31;;;;;;;2.78;1.30;;;13.60;64.70;;;;;;4935268;29;20044;-78
2022/04/04 16:31:02;;;;;;;2.47;1.65;;;13.60;64.80;;;;;;4935787;29;20044;-72
2022/04/04 16:33:28;;;;;;;5.57;1.70;;;13.60;65.10;;;;;;4936287;29;20039;-71
2022/04/04 16:35:54;;;;;;;5.07;2.28;;;13.60;64.80;;;;;;4936618;29;20075;-72
2022/04/04 16:38:20;;;;;;;4.80;1.85;;;13.50;65.10;;;;;;4935938;29;20047;-73
2022/04/04 16:40:46;;;;;;;5.07;2.10;;;13.50;66.10;;;;;;4934629;29;20140;-71
2022/04/04 16:43:12;;;;;;;5.15;1.88;;;13.40;65.00;;;;;;4910839;29;20048;-71
2022/04/04 16:45:38;;;;;;;4.63;1.60;;;13.40;66.10;;;;;;4906219;29;20036;-71
2022/04/04 16:48:09;;;;;;;3.78;1.90;;;13.40;66.30;;;;;;4906893;29;20038;-72
2022/04/04 16:50:36;;;;;;;4.53;2.22;;;13.40;66.60;;;;;;4918612;29;20092;-78
2022/04/04 16:53:03;;;;;;;3.85;1.50;;;13.40;67.10;;;;;;4928398;29;20035;-78
2022/04/04 16:55:29;;;;;;;4.15;1.40;;;13.40;64.20;;;;;;4929266;29;20601;-72
2022/04/04 16:57:55;;;;;;;3.33;1.25;;;13.30;66.40;;;;;;4931847;29;20095;-72
2022/04/04 17:00:21;;;;;;;5.55;1.10;;;13.20;65.90;;;;;;4928027;29;20040;-71
2022/04/04 17:02:46;;;;;;;3.30;1.55;;;13.20;65.90;;;;;;4911944;29;20039;-78
2022/04/04 17:05:12;;;;;;;3.95;1.80;;;13.20;66.00;;;;;;4926194;29;20082;-78
2022/04/04 17:07:40;;;;;;;3.30;1.23;;;13.20;67.20;;;;;;4929416;29;20046;-79
2022/04/04 17:10:07;;;;;;;3.33;1.33;;;13.10;66.90;;;;;;4935671;29;20103;-79
2022/04/04 17:12:33;;;;;;;3.72;1.80;;;13.10;66.90;;;;;;4929079;29;20070;-79
2022/04/04 17:14:59;;;;;;;3.28;1.45;;;13.10;66.60;;;;;;4911631;29;20545;-79
2022/04/04 17:17:26;;;;;;;2.65;1.60;;;13.00;68.10;;;;;;4926277;29;20127;-79
2022/04/04 17:19:52;;;;;;;5.10;1.80;;;13.00;68.40;;;;;;4908756;29;20066;-78
2022/04/04 17:22:17;;;;;;;2.65;1.60;;;12.90;69.80;;;;;;4917321;29;20044;-78
2022/04/04 17:24:43;;;;;;;5.03;2.20;;;12.90;69.80;;;;;;4934333;29;20035;-78
2022/04/04 17:27:09;;;;;;;4.40;2.03;;;12.90;69.40;;;;;;4933919;29;20068;-78
2022/04/04 17:29:35;;;;;;;2.25;1.58;;;12.90;68.90;;;;;;4935394;29;20114;-78
2022/04/04 17:32:05;;;;;;;3.03;2.10;;;12.90;69.60;;;;;;4935737;29;20066;-78
2022/04/04 17:34:31;;;;;;;3.72;1.75;;;12.80;69.90;;;;;;4932769;29;20039;-78
2022/04/04 17:36:57;;;;;;;3.95;1.52;;;12.80;70.30;;;;;;4935742;29;20563;-77
2022/04/04 17:39:24;;;;;;;2.45;1.77;;;12.80;69.80;;;;;;4916846;29;20039;-78
2022/04/04 17:41:51;;;;;;;8.32;2.25;;;12.70;70.70;;;;;;4934742;29;20043;-78
2022/04/04 17:44:18;;;;;;;4.60;1.50;;;12.70;70.70;;;;;;4936024;29;20113;-78
2022/04/04 17:46:44;;;;;;;3.28;1.88;;;12.70;70.70;;;;;;4933671;29;20051;-78
2022/04/04 17:49:14;;;;;;;1.65;1.55;;;12.70;72.10;;;;;;4934764;29;20413;-78
2022/04/04 17:51:41;;;;;;;4.53;1.50;;;12.70;71.50;;;;;;4918560;29;20050;-78
2022/04/04 17:54:21;;;;;;;2.88;1.73;;;12.70;71.90;;;;;;4934215;29;20050;-78
2022/04/04 17:56:49;;;;;;;6.45;1.77;;;12.60;70.90;;;;;;4927950;29;20035;-77
2022/04/04 17:59:16;;;;;;;3.33;1.90;;;12.60;71.60;;;;;;4930712;29;20519;-78
2022/04/04 18:01:43;;;;;;;3.92;1.90;;;12.60;71.70;;;;;;4932356;29;20508;-77
2022/04/04 18:04:09;;;;;;;2.80;1.80;;;12.60;71.70;;;;;;4930933;29;20154;-77
2022/04/04 18:06:38;;;;;;;4.40;1.92;;;12.60;71.70;;;;;;4931612;29;20044;-77
2022/04/04 18:09:06;;;;;;;3.57;1.90;;;12.60;72.40;;;;;;4932118;29;20063;-77
2022/04/04 18:11:32;;;;;;;3.40;1.88;;;12.60;72.80;;;;;;4918563;29;20047;-77
2022/04/04 18:13:59;;;;;;;4.00;1.98;;;12.60;72.30;;;;;;4933154;29;20044;-77
2022/04/04 18:16:26;;;;;;;4.75;1.55;;;12.50;72.60;;;;;;4930769;29;20046;-77
2022/04/04 18:18:52;;;;;;;3.00;1.63;;;12.50;73.30;;;;;;4932670;29;20399;-77
2022/04/04 18:21:17;;;;;;;4.55;1.83;;;12.50;73.30;;;;;;4916343;29;20803;-77
2022/04/04 18:23:43;;;;;;;5.82;2.08;;;12.40;73.70;;;;;;4933687;29;20508;-77
2022/04/04 18:26:09;;;;;;;7.38;3.05;;;12.40;73.60;;;;;;4930331;29;20437;-77
2022/04/04 18:28:36;;;;;;;7.18;3.30;;;12.30;73.80;;;;;;4935760;29;20161;-77
2022/04/04 18:31:02;;;;;;;7.13;3.08;;;12.30;73.90;;;;;;4936841;29;20043;-77
2022/04/04 18:33:27;;;;;;;3.63;2.28;;;12.30;73.60;;;;;;4924517;29;20105;-76
2022/04/04 18:35:53;;;;;;;5.00;2.45;;;12.40;74.30;;;;;;4926201;29;20058;-70
2022/04/04 18:38:18;;;;;;;4.05;2.08;;;12.30;73.60;;;;;;4924828;29;20090;-70
2022/04/04 18:40:44;;;;;;;5.43;1.73;;;12.30;74.10;;;;;;4935626;29;20040;-70
2022/04/04 18:43:10;;;;;;;3.03;1.88;;;12.30;73.50;;;;;;4917188;29;20039;-71
2022/04/04 18:45:36;;;;;;;3.20;1.90;;;12.30;73.60;;;;;;4933955;29;20047;-71
2022/04/04 18:48:08;;;;;;;3.92;2.20;;;12.30;74.20;;;;;;4936146;29;20051;-70
2022/04/04 18:50:34;;;;;;;3.20;2.08;;;12.30;74.20;;;;;;4928625;29;20035;-71
2022/04/04 18:53:00;;;;;;;2.25;1.80;;;12.30;74.30;;;;;;4918874;29;20094;-70
2022/04/04 18:55:26;;;;;;;4.13;2.00;;;12.30;74.10;;;;;;4935017;29;20519;-70
2022/04/04 18:57:52;;;;;;;3.28;2.30;;;12.30;74.80;;;;;;4933822;29;20040;-70
2022/04/04 19:00:18;;;;;;;2.88;2.30;;;12.30;73.50;;;;;;4933907;29;20044;-70